Time;durP1;ratioP1;P1;durP2;ratioP2;P2;SDS_P1;SDS_P2;PMS_P1;PMS_P2;Temp;Humidity;BMP_temperature;BMP_pressure;BME280_temperature;BME280_humidity;BME280_pressure;Samples;Min_cycle;Max_cycle;Signal;HPM_P1;HPM_P2
2021/12/05 00:16:56;;;;;;;37.88;14.07;;;3.80;99.90;;;;;;5024782;28;20052;-66
2021/12/05 00:23:07;;;;;;;;;;;3.80;99.90;;;;;;5049064;28;20096;-66
2021/12/05 00:25:33;;;;;;;39.22;12.68;;;3.70;99.90;;;;;;5029311;28;19917;-66
2021/12/05 00:30:52;;;;;;;36.50;12.93;;;3.70;99.90;;;;;;5034096;28;20049;-66
2021/12/05 00:33:42;;;;;;;32.88;12.55;;;3.70;99.90;;;;;;5020026;28;20044;-66
2021/12/05 00:49:56;;;;;;;29.52;11.70;;;3.60;99.90;;;;;;5038817;28;20417;-65
2021/12/05 00:52:51;;;;;;;31.98;11.73;;;3.60;99.90;;;;;;5034253;28;20110;-65
2021/12/05 01:15:44;;;;;;;25.42;11.00;;;3.30;99.90;;;;;;5032477;28;20041;-66
2021/12/05 01:18:15;;;;;;;24.85;10.45;;;3.40;99.90;;;;;;5033981;28;20041;-65
2021/12/05 01:20:46;;;;;;;20.40;10.60;;;3.30;99.90;;;;;;5034403;28;20037;-65
2021/12/05 01:26:04;;;;;;;25.08;9.85;;;3.30;99.90;;;;;;5033473;28;20057;-66
2021/12/05 01:38:58;;;;;;;19.67;9.75;;;3.30;99.90;;;;;;5033717;28;20389;-65
2021/12/05 01:55:47;;;;;;;18.48;9.57;;;3.40;99.90;;;;;;5030836;28;20111;-66
2021/12/05 02:01:15;;;;;;;22.88;10.00;;;3.50;99.90;;;;;;5032427;28;20087;-66
2021/12/05 02:12:05;;;;;;;23.48;10.48;;;3.50;99.90;;;;;;5034143;28;20045;-66
2021/12/05 02:41:47;;;;;;;18.90;9.23;;;3.70;99.90;;;;;;5031311;28;20045;-65
2021/12/05 02:44:20;;;;;;;28.25;9.80;;;3.70;99.90;;;;;;5031646;28;20028;-66
2021/12/05 02:46:52;;;;;;;24.10;9.65;;;3.70;99.90;;;;;;5031826;28;20119;-65
2021/12/05 02:49:19;;;;;;;26.88;10.88;;;3.60;99.90;;;;;;5018874;28;20086;-66
2021/12/05 02:51:59;;;;;;;24.88;10.40;;;3.70;99.90;;;;;;5014408;28;20055;-66
2021/12/05 02:54:28;;;;;;;30.75;12.00;;;3.70;99.90;;;;;;5033117;28;20049;-66
2021/12/05 02:56:55;;;;;;;28.00;11.27;;;3.70;99.90;;;;;;5025967;28;20050;-66
2021/12/05 03:00:09;;;;;;;29.70;11.90;;;3.70;99.90;;;;;;5028684;28;20033;-65
2021/12/05 03:02:14;;;;;;;32.42;12.52;;;3.70;99.90;;;;;;5021809;28;20097;-66
2021/12/05 03:04:45;;;;;;;31.02;12.43;;;3.70;99.90;;;;;;5033336;28;20033;-65
2021/12/05 03:07:13;;;;;;;36.40;14.30;;;3.70;99.90;;;;;;5032392;28;20045;-65
2021/12/05 03:09:41;;;;;;;26.90;12.88;;;3.70;99.90;;;;;;5028197;28;20041;-66
2021/12/05 03:12:11;;;;;;;32.17;13.43;;;3.70;99.90;;;;;;5027908;28;20073;-66
2021/12/05 03:14:37;;;;;;;29.80;13.25;;;3.70;99.90;;;;;;5028718;28;20435;-65
2021/12/05 03:17:04;;;;;;;32.15;13.68;;;3.70;99.90;;;;;;5023283;28;20044;-66
2021/12/05 03:19:30;;;;;;;34.45;14.18;;;3.70;99.90;;;;;;5031429;28;20775;-66
2021/12/05 03:21:55;;;;;;;41.35;15.18;;;3.80;99.90;;;;;;5045129;28;20439;-65
2021/12/05 03:24:23;;;;;;;32.97;14.70;;;3.80;99.90;;;;;;5032135;28;20066;-66
2021/12/05 03:26:51;;;;;;;34.95;15.80;;;3.70;99.90;;;;;;5024280;28;20079;-66
2021/12/05 03:29:18;;;;;;;30.10;14.68;;;3.70;99.90;;;;;;5030643;28;20041;-66
2021/12/05 03:31:45;;;;;;;38.28;16.17;;;3.70;99.90;;;;;;5001786;28;20041;-65
2021/12/05 03:34:14;;;;;;;39.00;16.38;;;3.70;99.90;;;;;;5028789;28;20068;-65
2021/12/05 03:36:43;;;;;;;37.05;15.40;;;3.80;99.90;;;;;;5032272;28;20051;-65
2021/12/05 03:39:09;;;;;;;41.80;16.70;;;3.70;99.90;;;;;;5031969;28;20033;-65
2021/12/05 03:41:37;;;;;;;36.72;16.92;;;3.70;99.90;;;;;;5018680;28;20029;-66
2021/12/05 03:44:04;;;;;;;38.38;17.42;;;3.70;99.90;;;;;;5047072;28;20083;-65
2021/12/05 03:46:30;;;;;;;37.20;15.07;;;3.70;99.90;;;;;;5023146;28;20049;-65
2021/12/05 03:49:00;;;;;;;40.38;16.98;;;3.70;99.90;;;;;;5024700;28;20037;-65
2021/12/05 03:51:30;;;;;;;38.97;16.87;;;3.70;99.90;;;;;;5032308;28;20068;-65
2021/12/05 03:53:56;;;;;;;40.05;16.55;;;3.70;99.90;;;;;;5030368;28;20300;-65
2021/12/05 03:56:22;;;;;;;37.83;17.13;;;3.70;99.90;;;;;;5032106;28;20049;-65
2021/12/05 03:58:49;;;;;;;44.00;17.17;;;3.60;99.90;;;;;;4994164;28;20046;-66
2021/12/05 04:01:16;;;;;;;32.95;16.10;;;3.70;99.90;;;;;;5029973;28;20069;-66
2021/12/05 04:03:44;;;;;;;42.55;17.77;;;3.60;99.90;;;;;;5032310;28;20099;-65
2021/12/05 04:06:12;;;;;;;37.78;17.20;;;3.60;99.90;;;;;;5031766;28;20090;-65
2021/12/05 04:08:40;;;;;;;43.05;17.00;;;3.60;99.90;;;;;;5031650;28;20051;-65
2021/12/05 04:11:13;;;;;;;43.80;17.30;;;3.60;99.90;;;;;;5003048;28;20038;-65
2021/12/05 04:13:39;;;;;;;34.03;16.70;;;3.60;99.90;;;;;;5029453;28;20041;-65
2021/12/05 04:16:07;;;;;;;42.42;16.52;;;3.60;99.90;;;;;;5030379;28;20048;-65
2021/12/05 04:18:33;;;;;;;35.80;16.75;;;3.50;99.90;;;;;;5029575;28;20036;-65
2021/12/05 04:20:59;;;;;;;36.90;16.45;;;3.50;99.90;;;;;;5012966;28;20124;-66
2021/12/05 04:23:26;;;;;;;39.53;17.40;;;3.60;99.90;;;;;;5031086;28;20119;-65
2021/12/05 04:25:52;;;;;;;36.85;15.88;;;3.50;99.90;;;;;;5049391;28;20139;-66
2021/12/05 04:28:20;;;;;;;41.80;16.83;;;3.50;99.90;;;;;;5028150;28;20040;-66
2021/12/05 04:30:46;;;;;;;35.28;15.77;;;3.40;99.90;;;;;;5049779;28;20094;-65
2021/12/05 04:33:12;;;;;;;33.05;15.13;;;3.40;99.90;;;;;;5035865;28;20057;-65
2021/12/05 04:35:38;;;;;;;34.38;15.32;;;3.50;99.90;;;;;;5053050;28;20041;-66
2021/12/05 04:38:04;;;;;;;40.28;14.98;;;3.40;99.90;;;;;;5053457;28;20063;-65
2021/12/05 04:40:32;;;;;;;33.88;14.30;;;3.40;99.90;;;;;;5034572;28;20039;-65
2021/12/05 04:42:59;;;;;;;37.53;15.68;;;3.40;99.90;;;;;;5050772;28;20148;-65
2021/12/05 04:45:27;;;;;;;31.85;13.05;;;3.40;99.90;;;;;;5050700;28;20365;-65
2021/12/05 04:47:54;;;;;;;31.27;14.75;;;3.40;99.90;;;;;;5035409;28;20049;-65
2021/12/05 04:50:21;;;;;;;34.70;13.45;;;3.40;99.90;;;;;;5035043;28;20049;-66
2021/12/05 04:52:47;;;;;;;33.53;13.48;;;3.30;99.90;;;;;;5034455;28;20045;-65
2021/12/05 04:55:13;;;;;;;36.28;13.43;;;3.30;99.90;;;;;;5034960;28;20727;-65
2021/12/05 04:57:42;;;;;;;29.30;13.70;;;3.30;99.90;;;;;;5029730;28;20047;-66
2021/12/05 05:00:23;;;;;;;31.33;13.10;;;3.30;99.90;;;;;;5004757;28;20465;-66
2021/12/05 05:02:49;;;;;;;29.90;12.60;;;3.30;99.90;;;;;;5053006;28;20069;-65
2021/12/05 05:05:15;;;;;;;30.77;11.50;;;3.30;99.90;;;;;;5035768;28;20080;-65
2021/12/05 05:07:42;;;;;;;30.23;11.68;;;3.30;99.90;;;;;;5033217;28;20032;-66
2021/12/05 05:10:30;;;;;;;30.35;12.27;;;3.30;99.90;;;;;;5034925;28;20124;-65
2021/12/05 05:12:56;;;;;;;30.33;11.57;;;3.30;99.90;;;;;;5014251;28;20048;-66
2021/12/05 05:15:25;;;;;;;32.25;11.45;;;3.30;99.90;;;;;;5033315;28;20077;-65
2021/12/05 05:17:53;;;;;;;29.55;11.65;;;3.30;99.90;;;;;;5052333;28;20434;-65
2021/12/05 05:20:35;;;;;;;28.55;12.50;;;3.30;99.90;;;;;;5044609;28;20072;-65
2021/12/05 05:23:17;;;;;;;23.73;10.02;;;3.20;99.90;;;;;;5050291;28;20041;-66
2021/12/05 05:39:55;;;;;;;29.23;10.23;;;3.10;99.90;;;;;;4956093;28;20041;-66
2021/12/05 05:47:41;;;;;;;22.45;8.60;;;3.00;99.90;;;;;;5029921;28;20065;-65
2021/12/05 05:50:07;;;;;;;19.75;8.93;;;3.00;99.90;;;;;;5023900;28;20392;-65
2021/12/05 05:52:33;;;;;;;26.40;9.02;;;3.00;99.90;;;;;;5033161;28;20068;-65
2021/12/05 05:55:00;;;;;;;24.23;8.65;;;3.00;99.90;;;;;;5042820;28;20115;-65
2021/12/05 05:57:46;;;;;;;21.48;8.73;;;2.90;99.90;;;;;;5029736;28;20219;-65
2021/12/05 06:00:19;;;;;;;23.80;9.50;;;2.90;99.90;;;;;;5026551;28;20064;-66
2021/12/05 06:05:32;;;;;;;24.88;9.13;;;2.90;99.90;;;;;;5034162;28;20044;-65
2021/12/05 06:07:58;;;;;;;24.40;8.68;;;2.90;99.90;;;;;;5021794;28;20049;-65
2021/12/05 06:10:30;;;;;;;24.77;8.85;;;2.90;99.90;;;;;;5053007;28;20040;-66
2021/12/05 06:12:56;;;;;;;22.65;8.95;;;2.90;99.90;;;;;;5033096;28;20032;-65
2021/12/05 06:15:26;;;;;;;21.08;9.30;;;2.90;99.90;;;;;;5029022;28;20736;-65
2021/12/05 06:17:55;;;;;;;27.27;9.13;;;2.80;99.90;;;;;;5027192;28;20064;-65
2021/12/05 06:20:25;;;;;;;27.55;9.30;;;2.90;99.90;;;;;;5033169;28;20040;-65
2021/12/05 06:22:52;;;;;;;23.60;8.43;;;2.80;99.90;;;;;;5028509;28;20033;-65
2021/12/05 06:25:22;;;;;;;24.63;8.93;;;2.90;99.90;;;;;;5019373;28;20036;-66
2021/12/05 06:27:48;;;;;;;;;;;2.90;99.90;;;;;;5022677;28;20033;-65
2021/12/05 06:31:03;;;;;;;19.48;8.07;;;2.80;99.90;;;;;;5026469;28;19925;-64
2021/12/05 06:38:58;;;;;;;21.15;8.15;;;2.80;99.90;;;;;;5026277;28;20044;-65
2021/12/05 06:46:52;;;;;;;28.77;9.10;;;2.90;99.90;;;;;;5030631;28;20071;-65
2021/12/05 06:49:17;;;;;;;28.95;9.10;;;2.90;99.90;;;;;;5031114;28;20048;-65
2021/12/05 06:51:43;;;;;;;23.25;8.70;;;2.90;99.90;;;;;;5029363;28;20096;-65
2021/12/05 06:54:09;;;;;;;26.10;8.65;;;2.90;99.90;;;;;;5030956;28;20064;-65
2021/12/05 06:56:34;;;;;;;28.90;9.07;;;2.90;99.90;;;;;;5028266;28;20053;-66
2021/12/05 06:59:00;;;;;;;25.30;8.80;;;2.90;99.90;;;;;;5029479;28;20378;-65
2021/12/05 07:01:26;;;;;;;24.75;8.40;;;2.90;99.90;;;;;;5029258;28;20064;-66
2021/12/05 07:03:52;;;;;;;28.70;9.63;;;2.90;99.90;;;;;;5030295;28;20081;-65
2021/12/05 07:06:27;;;;;;;23.17;8.20;;;2.90;99.90;;;;;;5027717;28;20052;-65
2021/12/05 07:08:58;;;;;;;21.85;8.68;;;2.90;99.90;;;;;;5029840;28;20044;-66
2021/12/05 07:11:35;;;;;;;23.63;8.40;;;2.90;99.90;;;;;;5029589;28;20056;-65
2021/12/05 07:14:24;;;;;;;28.38;8.70;;;2.90;99.90;;;;;;5027387;28;20171;-65
2021/12/05 07:19:43;;;;;;;26.52;8.88;;;3.00;99.90;;;;;;5048435;28;20120;-65
2021/12/05 07:22:23;;;;;;;28.88;9.45;;;2.90;99.90;;;;;;5012708;28;20505;-65
2021/12/05 07:24:54;;;;;;;26.98;9.45;;;2.90;99.90;;;;;;5047312;28;20045;-65
2021/12/05 07:41:26;;;;;;;30.40;10.02;;;3.10;99.90;;;;;;5024126;28;20037;-65
2021/12/05 07:43:52;;;;;;;30.67;9.80;;;3.10;99.90;;;;;;5012873;28;20029;-65
2021/12/05 07:46:17;;;;;;;21.88;9.82;;;3.10;99.90;;;;;;5030187;28;20047;-65
2021/12/05 07:48:46;;;;;;;31.85;10.82;;;3.10;99.90;;;;;;5015901;28;20099;-65
2021/12/05 07:56:21;;;;;;;26.50;10.40;;;3.20;99.90;;;;;;5024028;28;20041;-65
2021/12/05 08:14:52;;;;;;;24.85;9.85;;;3.30;99.90;;;;;;5033264;28;20424;-65
2021/12/05 08:17:20;;;;;;;32.15;11.38;;;3.40;99.90;;;;;;5035298;28;20036;-65
2021/12/05 08:19:46;;;;;;;30.40;10.30;;;3.40;99.90;;;;;;5034889;28;20041;-65
2021/12/05 08:22:12;;;;;;;26.42;10.93;;;3.40;99.90;;;;;;5034684;28;20194;-66
2021/12/05 08:24:40;;;;;;;31.27;10.93;;;3.50;99.90;;;;;;5028146;28;20037;-66
2021/12/05 08:27:08;;;;;;;31.95;10.98;;;3.50;99.90;;;;;;5033573;28;20037;-65
2021/12/05 08:29:44;;;;;;;30.77;10.88;;;3.50;99.90;;;;;;5034110;28;20184;-65
2021/12/05 08:35:19;;;;;;;23.73;10.35;;;3.50;99.90;;;;;;5035539;28;20373;-65
2021/12/05 08:40:56;;;;;;;32.00;11.38;;;3.50;99.90;;;;;;5027741;28;20037;-65
2021/12/05 10:07:40;;;;;;;25.30;9.63;;;4.30;99.90;;;;;;5033121;28;20140;-67
2021/12/05 10:10:17;;;;;;;23.20;10.18;;;4.30;99.90;;;;;;5032279;28;20068;-67
2021/12/05 10:13:03;;;;;;;23.70;10.38;;;4.30;99.90;;;;;;5025597;28;20047;-67
2021/12/05 10:15:46;;;;;;;20.90;9.95;;;4.30;99.90;;;;;;5030419;28;20141;-67
2021/12/05 10:38:47;;;;;;;25.75;10.35;;;4.30;99.90;;;;;;5032205;28;20051;-67
2021/12/05 10:44:06;;;;;;;21.67;10.20;;;4.40;99.90;;;;;;5045697;28;20075;-67
2021/12/05 10:46:34;;;;;;;27.05;9.50;;;4.40;99.90;;;;;;5047847;28;20134;-67
2021/12/05 10:49:19;;;;;;;21.80;9.90;;;4.40;99.90;;;;;;5032943;28;20051;-68
2021/12/05 10:51:57;;;;;;;19.88;9.50;;;4.40;99.90;;;;;;5039146;28;20095;-67
2021/12/05 10:54:24;;;;;;;24.20;9.88;;;4.40;99.90;;;;;;5012770;28;20124;-67
2021/12/05 10:57:02;;;;;;;20.70;9.25;;;4.40;99.90;;;;;;5026951;28;20054;-67
2021/12/05 10:59:37;;;;;;;25.02;9.35;;;4.40;99.90;;;;;;5030576;28;20044;-68
2021/12/05 11:02:06;;;;;;;23.63;9.60;;;4.40;99.90;;;;;;5016592;28;20040;-67
2021/12/05 11:04:35;;;;;;;19.13;8.85;;;4.40;99.90;;;;;;5031662;28;20037;-67
2021/12/05 11:07:08;;;;;;;22.48;9.13;;;4.40;99.90;;;;;;5029902;28;20069;-68
2021/12/05 11:09:40;;;;;;;21.00;9.57;;;4.40;99.90;;;;;;5031404;28;20426;-68
2021/12/05 11:12:22;;;;;;;22.40;8.48;;;4.40;99.90;;;;;;5005517;28;20097;-67
2021/12/05 11:14:55;;;;;;;17.63;8.73;;;4.40;99.90;;;;;;5027114;28;20072;-68
2021/12/05 11:17:29;;;;;;;20.65;9.02;;;4.40;99.90;;;;;;5022170;28;20171;-66
2021/12/05 11:19:58;;;;;;;22.88;8.60;;;4.40;99.90;;;;;;5027380;28;20032;-67
2021/12/05 11:22:29;;;;;;;19.65;8.45;;;4.40;99.90;;;;;;5023651;28;20037;-68
2021/12/05 11:24:58;;;;;;;16.02;8.25;;;4.40;99.90;;;;;;5026596;28;20079;-67
2021/12/05 11:27:29;;;;;;;20.42;8.55;;;4.40;99.90;;;;;;5028781;28;20532;-68
2021/12/05 11:29:57;;;;;;;;;;;4.40;99.90;;;;;;5030839;28;20056;-68
2021/12/05 11:32:33;;;;;;;17.20;7.70;;;4.40;99.90;;;;;;5031920;28;19917;-68
2021/12/05 11:35:08;;;;;;;24.80;8.55;;;4.40;99.90;;;;;;5048006;28;20414;-68
2021/12/05 11:37:55;;;;;;;18.73;8.45;;;4.50;99.90;;;;;;5047172;28;20392;-68
2021/12/05 11:40:23;;;;;;;19.27;8.50;;;4.40;99.90;;;;;;5031801;28;20037;-68
2021/12/05 11:43:08;;;;;;;23.92;8.23;;;4.40;99.90;;;;;;5028569;28;20041;-69
2021/12/05 11:45:50;;;;;;;16.55;8.05;;;4.40;99.90;;;;;;5030890;28;20334;-68
2021/12/05 11:48:25;;;;;;;20.27;8.70;;;4.40;99.90;;;;;;5031146;28;20048;-68
2021/12/05 11:50:52;;;;;;;17.52;7.47;;;4.40;99.90;;;;;;5031276;28;20037;-68
2021/12/05 11:53:34;;;;;;;15.32;7.53;;;4.40;99.90;;;;;;5031277;28;20044;-68
2021/12/05 11:56:00;;;;;;;22.90;8.10;;;4.40;99.90;;;;;;5014572;28;20041;-68
2021/12/05 11:58:26;;;;;;;21.83;8.13;;;4.40;99.90;;;;;;5027926;28;20122;-68
2021/12/05 12:00:51;;;;;;;14.27;8.32;;;4.40;99.90;;;;;;5031395;28;20483;-69
2021/12/05 12:03:30;;;;;;;17.10;8.43;;;4.40;99.90;;;;;;5015762;28;20119;-69
2021/12/05 12:05:56;;;;;;;18.65;9.10;;;4.40;99.90;;;;;;5031780;28;20072;-68
2021/12/05 12:08:22;;;;;;;19.15;8.85;;;4.40;99.90;;;;;;5030527;28;20043;-69
2021/12/05 12:10:57;;;;;;;20.00;10.27;;;4.40;99.90;;;;;;5031657;28;20045;-68
2021/12/05 12:13:28;;;;;;;25.40;9.50;;;4.40;99.90;;;;;;5028082;28;20051;-68
2021/12/05 12:16:00;;;;;;;24.80;10.43;;;4.50;99.90;;;;;;5047497;28;20048;-69
2021/12/05 12:18:38;;;;;;;21.95;9.60;;;4.50;99.90;;;;;;5015400;28;20167;-69
2021/12/05 12:21:26;;;;;;;21.85;9.65;;;4.50;99.90;;;;;;5030984;28;20072;-69
2021/12/05 12:23:56;;;;;;;20.63;9.93;;;4.50;99.90;;;;;;5007179;28;20040;-69
2021/12/05 12:26:23;;;;;;;22.80;8.73;;;4.60;99.90;;;;;;5030605;28;20037;-68
2021/12/05 12:28:49;;;;;;;21.58;10.65;;;4.70;99.90;;;;;;5030023;28;20326;-68
2021/12/05 12:31:25;;;;;;;23.20;9.30;;;4.70;99.90;;;;;;5031790;28;20080;-69
2021/12/05 12:33:59;;;;;;;19.90;9.18;;;4.80;99.90;;;;;;5026437;28;20037;-68
2021/12/05 12:36:36;;;;;;;23.55;9.93;;;4.80;99.90;;;;;;5024477;28;20072;-70
2021/12/05 12:39:24;;;;;;;21.00;9.57;;;4.80;99.90;;;;;;5014137;28;20048;-69
2021/12/05 12:42:13;;;;;;;16.58;8.45;;;4.90;99.90;;;;;;5025937;28;20049;-68
2021/12/05 12:45:00;;;;;;;17.42;8.90;;;4.90;99.90;;;;;;5049994;28;20459;-69
2021/12/05 12:47:35;;;;;;;19.45;9.85;;;5.10;99.90;;;;;;5013858;28;20041;-68
2021/12/05 12:50:20;;;;;;;20.08;9.93;;;5.10;99.90;;;;;;5013342;28;20164;-68
2021/12/05 12:53:02;;;;;;;18.15;9.52;;;5.10;99.90;;;;;;5032280;28;20044;-68
2021/12/05 12:55:36;;;;;;;22.73;8.63;;;5.00;99.90;;;;;;5033254;28;20049;-68
2021/12/05 12:58:05;;;;;;;16.25;8.80;;;5.00;99.90;;;;;;5031210;28;20045;-68
2021/12/05 13:00:32;;;;;;;17.87;8.53;;;4.90;99.90;;;;;;5033466;28;20068;-69
2021/12/05 13:03:01;;;;;;;19.40;9.00;;;5.00;99.90;;;;;;5033557;28;20055;-69
2021/12/05 13:11:21;;;;;;;18.70;8.35;;;5.00;99.90;;;;;;5033557;28;20136;-68
2021/12/05 13:14:01;;;;;;;23.45;9.38;;;4.90;99.90;;;;;;5031217;28;20037;-67
2021/12/05 13:16:32;;;;;;;18.45;9.57;;;5.00;99.90;;;;;;5033048;28;20033;-68
2021/12/05 13:18:59;;;;;;;;;;;5.00;99.90;;;;;;5052643;28;20044;-69
2021/12/05 13:21:39;;;;;;;19.75;9.20;;;5.00;99.90;;;;;;5034173;28;20019;-68
2021/12/05 13:24:42;;;;;;;20.25;8.85;;;5.00;99.90;;;;;;5031870;28;20044;-68
2021/12/05 13:27:23;;;;;;;19.58;8.77;;;5.00;99.90;;;;;;5004127;28;20048;-68
2021/12/05 13:29:52;;;;;;;20.98;9.70;;;5.00;99.90;;;;;;5031661;28;20045;-68
2021/12/05 13:32:25;;;;;;;21.95;10.35;;;5.10;99.90;;;;;;5033787;28;20048;-68
2021/12/05 13:34:54;;;;;;;19.85;9.18;;;5.10;99.90;;;;;;5017215;28;20056;-68
2021/12/05 13:37:56;;;;;;;22.80;9.48;;;5.10;99.90;;;;;;5015723;28;20107;-68
2021/12/05 13:40:26;;;;;;;18.58;9.10;;;5.20;99.90;;;;;;4956076;28;20515;-68
2021/12/05 13:42:54;;;;;;;15.35;8.32;;;5.20;99.90;;;;;;5016883;28;20542;-68
2021/12/05 13:45:21;;;;;;;19.02;8.45;;;5.10;99.90;;;;;;5024745;28;20033;-68
2021/12/05 13:47:58;;;;;;;16.17;8.45;;;5.10;99.90;;;;;;5027785;28;20104;-68
2021/12/05 13:50:41;;;;;;;20.90;8.63;;;5.10;99.90;;;;;;5032971;28;20049;-68
2021/12/05 13:53:06;;;;;;;15.60;8.25;;;5.10;99.90;;;;;;5015310;28;20041;-67
2021/12/05 13:56:03;;;;;;;21.92;8.60;;;5.10;99.90;;;;;;5019373;28;20064;-68
2021/12/05 14:01:20;;;;;;;19.77;8.27;;;5.00;99.90;;;;;;5029352;28;20079;-67
2021/12/05 14:04:05;;;;;;;16.55;8.10;;;5.00;99.90;;;;;;5032380;28;20114;-67
2021/12/05 14:06:42;;;;;;;15.75;8.27;;;5.00;99.90;;;;;;5028982;28;20049;-68
2021/12/05 14:09:14;;;;;;;21.10;9.10;;;5.00;99.90;;;;;;5026586;28;20049;-68
2021/12/05 14:11:48;;;;;;;17.23;8.73;;;5.00;99.90;;;;;;5045890;28;20365;-67
2021/12/05 14:14:15;;;;;;;16.80;7.68;;;5.00;99.90;;;;;;5014237;28;20633;-67
2021/12/05 14:16:43;;;;;;;17.92;8.10;;;5.00;99.90;;;;;;5031628;28;20107;-67
2021/12/05 14:19:12;;;;;;;16.38;7.93;;;4.90;99.90;;;;;;5011779;28;20365;-67
2021/12/05 14:21:46;;;;;;;19.92;8.82;;;4.90;99.90;;;;;;5027076;28;20041;-67
2021/12/05 14:24:12;;;;;;;15.90;8.60;;;4.90;99.90;;;;;;5030849;28;20073;-67
2021/12/05 14:26:40;;;;;;;21.38;9.18;;;4.90;99.90;;;;;;5031254;28;20037;-67
2021/12/05 14:29:16;;;;;;;20.40;8.65;;;4.80;99.90;;;;;;5030558;28;20127;-67
2021/12/05 14:31:55;;;;;;;17.55;8.15;;;4.80;99.90;;;;;;5014451;28;20041;-67
2021/12/05 14:34:21;;;;;;;17.90;9.07;;;4.80;99.90;;;;;;5031834;28;20037;-67
2021/12/05 14:37:01;;;;;;;18.48;8.88;;;4.80;99.90;;;;;;5030656;28;20041;-67
2021/12/05 14:39:33;;;;;;;16.25;7.70;;;4.80;99.90;;;;;;5029110;28;20044;-67
2021/12/05 14:42:23;;;;;;;18.98;9.30;;;4.70;99.90;;;;;;5030125;28;20120;-67
2021/12/05 14:44:50;;;;;;;;;;;4.70;99.90;;;;;;5039686;28;20047;-67
2021/12/05 14:47:20;;;;;;;21.55;8.70;;;4.70;99.90;;;;;;5032056;28;20287;-67
2021/12/05 14:49:57;;;;;;;21.20;9.45;;;4.70;99.90;;;;;;5031749;28;20051;-67
2021/12/05 14:52:27;;;;;;;20.92;9.77;;;4.70;99.90;;;;;;5021916;28;20504;-66
2021/12/05 14:54:54;;;;;;;18.75;9.40;;;4.70;99.90;;;;;;5031717;28;20060;-67
2021/12/05 14:57:23;;;;;;;22.17;10.85;;;4.60;99.90;;;;;;5029521;28;20078;-67
2021/12/05 14:59:52;;;;;;;19.52;9.77;;;4.60;99.90;;;;;;5015944;28;20037;-66
2021/12/05 15:02:20;;;;;;;18.98;10.57;;;4.60;99.90;;;;;;5015760;28;20491;-67
2021/12/05 15:04:49;;;;;;;23.30;11.52;;;4.60;99.90;;;;;;5031416;28;20036;-67
2021/12/05 15:07:18;;;;;;;22.15;10.32;;;4.70;99.90;;;;;;5022636;28;20753;-67
2021/12/05 15:09:47;;;;;;;22.50;11.00;;;4.70;99.90;;;;;;5031331;28;20085;-67
2021/12/05 15:12:23;;;;;;;21.48;10.93;;;4.70;99.90;;;;;;5012822;28;20041;-67
2021/12/05 15:14:52;;;;;;;24.30;11.60;;;4.70;99.90;;;;;;5029400;28;20116;-67
2021/12/05 15:17:26;;;;;;;22.85;10.25;;;4.70;99.90;;;;;;5031119;28;20041;-67
2021/12/05 15:19:55;;;;;;;18.50;10.68;;;4.60;99.90;;;;;;5032171;28;20060;-66
2021/12/05 15:22:22;;;;;;;22.95;10.65;;;4.70;99.90;;;;;;5031292;28;20041;-67
2021/12/05 15:25:09;;;;;;;19.13;10.32;;;4.60;99.90;;;;;;5027468;28;20112;-67
2021/12/05 15:27:36;;;;;;;23.65;10.50;;;4.60;99.90;;;;;;5022346;28;20120;-66
2021/12/05 15:30:09;;;;;;;22.90;10.82;;;4.60;99.90;;;;;;5029119;28;20045;-66
2021/12/05 15:32:35;;;;;;;17.88;9.80;;;4.60;99.90;;;;;;5032071;28;20048;-67
2021/12/05 15:35:05;;;;;;;24.73;11.05;;;4.60;99.90;;;;;;5015600;28;20037;-66
2021/12/05 15:37:31;;;;;;;22.38;10.27;;;4.60;99.90;;;;;;5029946;28;20064;-66
2021/12/05 15:39:59;;;;;;;23.85;10.70;;;4.60;99.90;;;;;;5022720;28;20069;-66
2021/12/05 15:42:28;;;;;;;21.50;10.43;;;4.60;99.90;;;;;;5024664;28;20045;-66
2021/12/05 15:44:57;;;;;;;23.83;10.68;;;4.60;99.90;;;;;;5026280;28;20129;-66
2021/12/05 15:47:25;;;;;;;23.75;10.20;;;4.60;99.90;;;;;;5015510;28;20033;-66
2021/12/05 15:50:11;;;;;;;21.98;11.30;;;4.50;99.90;;;;;;5031713;28;20091;-66
2021/12/05 15:52:47;;;;;;;22.85;11.05;;;4.50;99.90;;;;;;5025419;28;20055;-66
2021/12/05 15:55:23;;;;;;;28.90;11.52;;;4.50;99.90;;;;;;5031427;28;20079;-67
2021/12/05 15:57:59;;;;;;;22.90;10.65;;;4.50;99.90;;;;;;5026999;28;20562;-66
2021/12/05 16:00:33;;;;;;;19.50;10.65;;;4.40;99.90;;;;;;5047874;28;20099;-66
2021/12/05 16:03:39;;;;;;;32.85;11.63;;;4.40;99.90;;;;;;5031701;28;20044;-66
2021/12/05 16:06:05;;;;;;;25.75;11.60;;;4.50;99.90;;;;;;4983791;28;20581;-67
2021/12/05 16:08:32;;;;;;;23.85;11.38;;;4.40;99.90;;;;;;5029962;28;20123;-66
2021/12/05 16:10:59;;;;;;;24.58;11.15;;;4.50;99.90;;;;;;5030865;28;20072;-66
2021/12/05 16:13:30;;;;;;;24.27;11.75;;;4.40;99.90;;;;;;5027517;28;20053;-67
2021/12/05 16:16:10;;;;;;;21.40;10.57;;;4.40;99.90;;;;;;5029827;28;20044;-67
2021/12/05 16:18:38;;;;;;;23.83;12.00;;;4.40;99.90;;;;;;5024079;28;20041;-66
2021/12/05 16:21:14;;;;;;;20.73;10.52;;;4.40;99.90;;;;;;5024577;28;20033;-67
2021/12/05 16:23:39;;;;;;;21.45;10.65;;;4.40;99.90;;;;;;5027927;28;20461;-66
2021/12/05 16:26:21;;;;;;;26.38;11.35;;;4.40;99.90;;;;;;5013979;28;20049;-66
2021/12/05 16:28:50;;;;;;;26.98;11.13;;;4.40;99.90;;;;;;5031869;28;20376;-66
2021/12/05 16:31:18;;;;;;;29.38;12.75;;;4.40;99.90;;;;;;5033469;28;20409;-66
2021/12/05 16:33:49;;;;;;;32.05;13.32;;;4.40;99.90;;;;;;5034709;28;20044;-66
2021/12/05 16:36:17;;;;;;;30.63;13.55;;;4.40;99.90;;;;;;5034971;28;20045;-66
2021/12/05 16:38:50;;;;;;;26.90;12.32;;;4.40;99.90;;;;;;5034364;28;20050;-66
2021/12/05 16:41:25;;;;;;;29.00;13.73;;;4.40;99.90;;;;;;5033832;28;20041;-66
2021/12/05 16:43:55;;;;;;;29.85;13.90;;;4.40;99.90;;;;;;5020431;28;20116;-66
2021/12/05 16:46:36;;;;;;;26.85;12.90;;;4.40;99.90;;;;;;5028237;28;20041;-66
2021/12/05 16:49:06;;;;;;;35.03;14.25;;;4.40;99.90;;;;;;5031292;28;20117;-67
2021/12/05 16:51:34;;;;;;;;;;;4.40;99.90;;;;;;5026142;28;20574;-67
2021/12/05 16:54:12;;;;;;;27.23;13.07;;;4.40;99.90;;;;;;5028617;28;19921;-66
2021/12/05 16:56:54;;;;;;;28.52;13.82;;;4.40;99.90;;;;;;5029776;28;20082;-71
2021/12/05 16:59:27;;;;;;;32.28;14.05;;;4.40;99.90;;;;;;5033243;28;20048;-66
2021/12/05 17:02:16;;;;;;;36.17;15.43;;;4.40;99.90;;;;;;5033914;28;20045;-66
2021/12/05 17:04:49;;;;;;;29.33;14.55;;;4.40;99.90;;;;;;5031852;28;20461;-66
2021/12/05 17:07:35;;;;;;;31.65;14.95;;;4.40;99.90;;;;;;5033562;28;20049;-66
2021/12/05 17:10:02;;;;;;;33.47;14.52;;;4.40;99.90;;;;;;5033522;28;20040;-66
2021/12/05 17:12:30;;;;;;;33.90;15.52;;;4.40;99.90;;;;;;5031819;28;20095;-66
2021/12/05 17:15:14;;;;;;;34.90;16.08;;;4.40;99.90;;;;;;5032384;28;20704;-66
2021/12/05 17:17:41;;;;;;;32.25;14.88;;;4.50;99.90;;;;;;5033905;28;20037;-66
2021/12/05 17:20:25;;;;;;;44.45;16.40;;;4.40;99.90;;;;;;5030571;28;20095;-66
2021/12/05 17:23:10;;;;;;;35.35;15.98;;;4.40;99.90;;;;;;5025471;28;20073;-67
2021/12/05 17:25:44;;;;;;;38.83;16.77;;;4.50;99.90;;;;;;5050384;28;20036;-66
2021/12/05 17:28:45;;;;;;;32.35;15.80;;;4.40;99.90;;;;;;5030970;28;20164;-66
2021/12/05 17:31:14;;;;;;;34.60;16.10;;;4.40;99.90;;;;;;5026823;28;20358;-66
2021/12/05 17:33:51;;;;;;;36.70;16.33;;;4.40;99.90;;;;;;5034421;28;20056;-66
2021/12/05 17:36:19;;;;;;;36.80;15.80;;;4.40;99.90;;;;;;5018355;28;20519;-66
2021/12/05 17:38:46;;;;;;;38.85;16.33;;;4.40;99.90;;;;;;5012511;28;20470;-66
2021/12/05 17:41:12;;;;;;;35.72;16.77;;;4.40;99.90;;;;;;5026296;28;20127;-66
2021/12/05 17:43:38;;;;;;;39.55;17.45;;;4.40;99.90;;;;;;5014626;28;20036;-66
2021/12/05 17:46:04;;;;;;;37.17;16.95;;;4.40;99.90;;;;;;5032611;28;20053;-65
2021/12/05 17:48:29;;;;;;;41.15;17.58;;;4.40;99.90;;;;;;5033964;28;20083;-65
2021/12/05 17:50:56;;;;;;;40.50;17.08;;;4.40;99.90;;;;;;5033053;28;20064;-65
2021/12/05 17:53:29;;;;;;;41.90;17.98;;;4.40;99.90;;;;;;5032886;28;20052;-68
2021/12/05 17:56:01;;;;;;;36.42;16.13;;;4.40;99.90;;;;;;5032759;28;20049;-66
2021/12/05 18:03:56;;;;;;;39.00;18.15;;;4.40;99.90;;;;;;5014065;28;20049;-64
2021/12/05 18:06:22;;;;;;;39.55;17.52;;;4.40;99.90;;;;;;5031415;28;20157;-66
2021/12/05 18:08:48;;;;;;;43.95;18.50;;;4.30;99.90;;;;;;5033194;28;20051;-65
2021/12/05 18:11:20;;;;;;;42.55;17.10;;;4.30;99.90;;;;;;5032013;28;20045;-66
2021/12/05 18:13:54;;;;;;;44.17;18.67;;;4.30;99.90;;;;;;5030734;28;20041;-65
2021/12/05 18:16:25;;;;;;;42.47;18.95;;;4.20;99.90;;;;;;5031428;28;20044;-65
2021/12/05 18:18:53;;;;;;;46.55;18.75;;;4.20;99.90;;;;;;5033815;28;20033;-65
2021/12/05 18:21:19;;;;;;;41.80;16.90;;;4.20;99.90;;;;;;5031719;28;20060;-65
2021/12/05 18:23:46;;;;;;;40.78;17.27;;;4.20;99.90;;;;;;5028906;28;20168;-65
2021/12/05 18:26:12;;;;;;;38.58;16.63;;;4.10;99.90;;;;;;5016203;28;20056;-66
2021/12/05 18:28:39;;;;;;;37.55;17.48;;;4.10;99.90;;;;;;5029999;28;20040;-66